Latest Coastal Weather Observations for Ballina

IDN60701

Issued at 5:15 pm EDT Sunday 26 October 2014 (issued every 10 minutes, with the page automatically refreshed every 10 minutes)

About coastal observations | Map of coastal stations | Coastal observations for NSW | Marine services | Other Formats
Station Details ID: 058198 Name: BALLINA AIRPORT AWS Lat: -28.84 Lon: 153.56 Height: 1.3 m
Data from the previous 72 hours. | See also: Recent months at Ballina
Date/Time
EDT
Temp

°C
Wind Pressure Rain
since 9am
mm
Weather Cloud Vis
km
Sea
Height
m
Swell
Dir
 
Speed
knots
Gust
knots
hPa Trend Height
m
Period
s
Dir
26/05:03pm 25.0 NNE 17 28 1009.4 - 0.0 - - 10 - - - -
26/05:00pm 25.3 NNE 16 25 1009.4 - 0.0 - - 10 - - - -
26/04:30pm 25.4 NNE 19 27 1009.7 - 0.0 - - 10 - - - -
26/04:00pm 26.0 NNE 19 27 1009.8 - 0.0 - - 10 - - - -
26/03:30pm 26.1 NNE 18 25 1010.1 - 0.0 - - 10 - - - -
26/03:00pm 27.1 NNE 15 21 1010.7 - 0.0 - - 10 - - - -
26/02:30pm 27.2 NNE 15 21 1011.1 - 0.0 - - 10 - - - -
26/02:00pm 27.3 NNE 16 22 1011.6 - 0.0 - - 10 - - - -
26/01:30pm 27.8 N 15 19 1012.4 - 0.0 - - 10 - - - -
26/01:00pm 27.9 N 14 19 1012.7 - 0.0 - - 10 - - - -
26/12:30pm 27.5 NNE 15 20 1013.2 - 0.0 - - 10 - - - -
26/12:00pm 27.3 N 14 17 1013.8 - 0.0 - - 10 - - - -
26/11:30am 27.6 N 12 16 1014.4 - 0.0 - - 10 - - - -
26/11:00am 27.4 N 9 13 1014.7 - 0.0 - - 10 - - - -
26/10:30am 26.4 NNE 9 13 1015.0 - 0.0 - - 10 - - - -
26/10:00am 25.8 N 9 11 1015.3 - 0.0 - - 10 - - - -
26/09:30am 25.1 N 8 11 1015.3 - 0.0 - - 10 - - - -
26/09:00am 24.4 N 10 14 1015.4 - 0.0 - - 10 - - - -
26/08:30am 23.1 N 9 15 1015.5 - 0.0 - - 10 - - - -
26/08:00am 21.8 N 13 17 1015.2 - 0.0 - - 9 - - - -
26/07:30am 21.0 N 11 15 1015.2 - 0.0 - - 10 - - - -
26/07:00am 19.9 N 8 11 1015.0 - 0.0 - - 10 - - - -
26/06:30am 19.1 N 8 11 1014.9 - 0.0 - - 10 - - - -
26/06:00am 18.4 NNE 7 9 1014.6 - 0.0 - - 10 - - - -
26/05:30am 18.0 N 9 11 1014.3 - 0.0 - - 10 - - - -
26/05:00am 17.4 N 7 9 1014.5 - 0.0 - - 10 - - - -
26/04:30am 15.8 NNW 1 4 1014.7 - 0.0 - - 10 - - - -
26/04:00am 16.4 N 3 4 1014.6 - 0.0 - - 10 - - - -
26/03:30am 16.7 N 5 5 1014.6 - 0.0 - - 10 - - - -
26/03:00am 16.5 CALM 0 0 1014.9 - 0.0 - - 10 - - - -
26/02:30am 16.8 N 2 3 1014.9 - 0.0 - - 10 - - - -
26/02:00am 17.1 N 4 5 1015.1 - 0.0 - - 10 - - - -
26/01:30am 17.3 NNW 2 4 1015.8 - 0.0 - - 10 - - - -
26/01:00am 17.1 N 3 4 1015.9 - 0.0 - - 10 - - - -
26/12:30am 18.1 CALM 0 0 1016.4 - 0.0 - - 10 - - - -
26/12:00am 16.9 SW 0 3 1016.4 - 0.0 - - 10 - - - -
 
Date/Time
EDT
Temp

°C
Wind Pressure Rain
since 9am
mm
Weather Cloud Vis
km
Sea
Height
m
Swell
Dir
 
Speed
knots
Gust
knots
hPa Trend Height
m
Period
s
Dir
25/11:30pm 19.0 W 3 4 1016.0 - 0.0 - - 10 - - - -
25/11:00pm 19.8 N 4 6 1015.9 - 0.0 - - 10 - - - -
25/10:30pm 19.9 N 4 6 1015.8 - 0.0 - - 10 - - - -
25/10:00pm 20.5 N 6 9 1015.7 - 0.0 - - 10 - - - -
25/09:30pm 20.3 N 5 6 1015.8 - 0.0 - - 10 - - - -
25/09:00pm 20.8 N 7 9 1015.6 - 0.0 - Mostly clear 10 - - - -
25/08:30pm 21.1 N 8 11 1015.4 - 0.0 - - 10 - - - -
25/08:00pm 21.5 N 8 11 1015.3 - 0.0 - - 10 - - - -
25/07:30pm 21.7 N 11 17 1014.9 - 0.0 - - 10 - - - -
25/07:00pm 22.2 N 11 18 1014.8 - 0.0 - Partly cloudy 10 - - - -
25/06:30pm 22.7 NNE 12 17 1014.5 - 0.0 - Partly cloudy 10 - - - -
25/06:00pm 22.6 N 12 19 1014.4 - 0.0 - Cloudy 10 - - - -
25/05:30pm 23.0 NNE 11 21 1013.8 - 0.0 - - 10 - - - -
25/05:00pm 24.6 NNE 17 25 1013.4 - 0.0 - - 10 - - - -
25/04:30pm 25.2 NNE 13 23 1013.3 - 0.0 - - 10 - - - -
25/04:00pm 25.4 NNE 16 22 1013.3 - 0.0 - - 10 - - - -
25/03:30pm 25.5 NNE 16 23 1013.3 - 0.0 - - 10 - - - -
25/03:00pm 25.7 N 18 25 1013.7 - 0.0 - - 10 - - - -
25/02:30pm 26.7 N 16 26 1014.2 - 0.0 - - 10 - - - -
25/02:00pm 26.5 NNE 17 26 1014.6 - 0.0 - - 10 - - - -
25/01:56pm 26.3 N 16 26 1014.6 - 0.0 - - 10 - - - -
25/01:30pm 26.4 NNE 18 24 1014.9 - 0.0 - - 10 - - - -
25/01:13pm 26.1 N 18 28 1015.3 - 0.0 - - 10 - - - -
25/01:00pm 26.7 N 16 22 1015.5 - 0.0 - - 10 - - - -
25/12:30pm 27.3 N 15 20 1016.1 - 0.0 - - 10 - - - -
25/12:00pm 27.5 N 13 18 1016.5 - 0.0 - - 10 - - - -
25/11:30am 27.0 N 13 17 1017.0 - 0.0 - - 10 - - - -
25/11:00am 26.3 NNE 11 16 1017.6 - 0.0 - - 10 - - - -
25/10:30am 25.2 NNE 13 17 1018.0 - 0.0 - - 10 - - - -
25/10:00am 24.8 NNE 11 15 1018.4 - 0.0 - - 10 - - - -
25/09:30am 23.7 N 8 11 1018.9 - 0.0 - - 10 - - - -
25/09:00am 23.6 N 9 12 1018.9 - 0.0 - Mostly clear 10 - - - -
25/08:30am 22.3 N 9 12 1018.8 - 0.0 - - 10 - - - -
25/08:00am 21.2 N 6 8 1019.0 - 0.0 - - 10 - - - -
25/07:30am 20.1 N 2 4 1019.2 - 0.0 - - 10 - - - -
25/07:00am 18.3 CALM 0 0 1018.7 - 0.0 - - 10 - - - -
25/06:30am 17.3 NW 4 5 1018.5 - 0.0 - - 10 - - - -
25/06:00am 17.2 N 1 3 1018.1 - 0.0 - Mostly cloudy 10 - - - -
25/05:30am 17.7 NNW 5 7 1017.8 - 0.0 - - 10 - - - -
25/05:00am 17.4 N 5 7 1017.5 - 0.0 - - 10 - - - -
25/04:30am 17.5 N 3 5 1017.7 - 0.0 - - 10 - - - -
25/04:00am 17.8 N 5 7 1017.6 - 0.0 - - 10 - - - -
25/03:30am 18.2 N 5 8 1017.9 - 0.0 - - 10 - - - -
25/03:00am 18.7 N 7 9 1017.9 - 0.0 - Mostly clear 10 - - - -
25/02:30am 19.1 N 9 12 1018.2 - 0.0 - - 10 - - - -
25/02:00am 19.4 N 11 15 1018.4 - 0.0 - - 10 - - - -
25/01:30am 19.7 N 13 19 1018.9 - 0.0 - - 10 - - - -
25/01:00am 19.8 N 14 21 1018.9 - 0.0 - - 10 - - - -
25/12:30am 19.9 N 13 20 1019.5 - 0.0 - - 10 - - - -
25/12:00am 19.8 N 9 12 1020.5 - 0.0 - - 10 - - - -
 
Date/Time
EDT
Temp

°C
Wind Pressure Rain
since 9am
mm
Weather Cloud Vis
km
Sea
Height
m
Swell
Dir
 
Speed
knots
Gust
knots
hPa Trend Height
m
Period
s
Dir
24/11:30pm 20.0 N 11 15 1020.8 - 0.0 - - 10 - - - -
24/11:00pm 20.2 N 11 15 1020.9 - 0.0 - - 10 - - - -
24/10:30pm 20.2 N 11 16 1020.8 - 0.0 - - 10 - - - -
24/10:00pm 20.1 N 11 18 1021.1 - 0.0 - - 10 - - - -
24/09:30pm 20.1 NNE 11 15 1021.0 - 0.0 - - 10 - - - -
24/09:00pm 20.2 NNE 10 15 1020.9 - 0.0 - - 10 - - - -
24/08:30pm 20.3 NNE 12 16 1020.7 - 0.0 - - 10 - - - -
24/08:00pm 20.2 NNE 12 19 1020.3 - 0.0 - - 10 - - - -
24/07:30pm 20.2 NNE 11 16 1020.4 - 0.0 - - 10 - - - -
24/07:00pm 20.4 NNE 12 16 1020.0 - 0.0 - - 10 - - - -
24/06:30pm 20.9 NNE 14 21 1019.9 - 0.0 - - 10 - - - -
24/06:00pm 21.7 NNE 14 20 1019.7 - 0.0 - - 10 - - - -
24/05:30pm 22.2 NNE 15 21 1019.2 - 0.0 - - 10 - - - -
24/05:00pm 22.4 NE 18 24 1019.1 - 0.0 - - 10 - - - -
24/04:30pm 22.9 NE 19 24 1019.3 - 0.0 - - 10 - - - -
24/04:00pm 23.3 NE 19 25 1019.4 - 0.0 - - 10 - - - -
24/03:30pm 23.7 NNE 18 25 1019.8 - 0.0 - - 10 - - - -
24/03:00pm 24.5 NE 17 23 1020.1 - 0.0 - - 10 - - - -
24/02:30pm 23.8 NE 17 22 1020.4 - 0.0 - - 10 - - - -
24/02:00pm 24.0 NE 16 23 1020.5 - 0.0 - - 10 - - - -
24/01:30pm 23.9 NE 16 23 1020.8 - 0.0 - - 10 - - - -
24/01:00pm 24.2 NE 16 24 1021.2 - 0.0 - - 10 - - - -
24/12:30pm 24.1 NE 17 24 1021.4 - 0.0 - - 10 - - - -
24/12:00pm 24.5 NE 17 22 1021.5 - 0.0 - - 10 - - - -
24/11:30am 24.9 NE 15 21 1021.7 - 0.0 - - 10 - - - -
24/11:00am 24.2 NE 15 19 1021.9 - 0.0 - - 10 - - - -
24/10:30am 24.6 NNE 11 16 1022.2 - 0.0 - - 10 - - - -
24/10:00am 23.9 NNE 11 17 1022.5 - 0.0 - - 10 - - - -
24/09:30am 23.2 N 10 16 1022.4 - 0.0 - - 10 - - - -
24/09:00am 22.2 N 11 17 1022.5 - 0.0 - - 10 - - - -
24/08:30am 21.9 N 10 13 1022.2 - 0.0 - - 10 - - - -
24/08:00am 20.5 N 7 10 1022.3 - 0.0 - - 10 - - - -
24/07:30am 19.1 N 5 7 1022.2 - 0.0 - - 10 - - - -
24/07:00am 17.7 N 3 6 1022.0 - 0.0 - - 10 - - - -
24/06:30am 15.5 N 3 3 1021.5 - 0.0 - - 10 - - - -
24/06:00am 16.3 N 4 5 1021.2 - 0.0 - - 10 - - - -
24/05:30am 16.4 N 5 6 1020.9 - 0.0 - - 10 - - - -
24/05:00am 16.3 N 5 7 1020.5 - 0.0 - - 10 - - - -
24/04:30am 16.6 N 4 5 1020.6 - 0.0 - - 10 - - - -
24/04:00am 16.6 N 4 6 1020.2 - 0.0 - - 10 - - - -
24/03:30am 16.9 N 5 6 1020.3 - 0.0 - - 10 - - - -
24/03:00am 17.5 N 5 7 1020.5 - 0.0 - - 10 - - - -
24/02:30am 17.8 N 7 10 1020.2 - 0.0 - - 10 - - - -
24/02:00am 17.8 NNE 7 9 1020.7 - 0.0 - - 10 - - - -
24/01:30am 18.1 N 7 9 1020.9 - 0.0 - - 10 - - - -
24/01:00am 18.0 NNE 7 10 1021.0 - 0.0 - - 10 - - - -
24/12:30am 18.0 NNE 7 9 1021.2 - 0.0 - - 10 - - - -
24/12:00am 18.2 NNE 7 10 1021.2 - 0.0 - - 10 - - - -
 
Date/Time
EDT
Temp

°C
Wind Pressure Rain
since 9am
mm
Weather Cloud Vis
km
Sea
Height
m
Swell
Dir
 
Speed
knots
Gust
knots
hPa Trend Height
m
Period
s
Dir
23/11:30pm 17.8 NNE 6 7 1021.3 - 0.0 - - 10 - - - -
23/11:00pm 18.3 N 6 7 1021.2 - 0.0 - - 10 - - - -
23/10:30pm 18.6 NNE 6 8 1021.2 - 0.0 - - 10 - - - -
23/10:00pm 18.8 N 6 9 1020.9 - 0.0 - - 10 - - - -
23/09:30pm 19.2 NNE 8 10 1020.7 - 0.0 - - 10 - - - -
23/09:00pm 19.6 NNE 7 10 1020.4 - 0.0 - Cloudy 10 - - - -
23/08:30pm 20.0 N 9 15 1020.0 - 0.0 - - 10 - - - -
23/08:00pm 19.8 NNE 9 12 1019.7 - 0.0 - - 10 - - - -
23/07:30pm 19.9 NNE 7 9 1019.6 - 0.0 - - 10 - - - -
23/07:00pm 20.3 N 7 11 1019.5 - 0.0 - - 10 - - - -
23/06:30pm 20.5 NNE 9 13 1018.9 - 0.0 - - 10 - - - -
23/06:00pm 20.7 NNE 9 13 1018.5 - 0.0 - - 10 - - - -
23/05:30pm 21.3 NNE 10 13 1018.3 - 0.0 - - 10 - - - -

Other Formats:

Comma delimited format used in spreadsheet applications
http://www.bom.gov.au/fwo/IDN60701/IDN60701.94596.axf

JavaScript Object Notation format (JSON) in row-major order
http://www.bom.gov.au/fwo/IDN60701/IDN60701.94596.json